sensor_id;sensor_type;location;lat;lon;timestamp;P1;durP1;ratioP1;P2;durP2;ratioP2
74213;SDS011;62576;55.694;37.494;2023-08-06T00:00:23;9.40;;;6.22;;
74213;SDS011;62576;55.694;37.494;2023-08-06T00:02:53;11.57;;;5.70;;
74213;SDS011;62576;55.694;37.494;2023-08-06T00:05:23;12.27;;;6.38;;
74213;SDS011;62576;55.694;37.494;2023-08-06T00:07:52;10.55;;;6.00;;
74213;SDS011;62576;55.694;37.494;2023-08-06T00:10:22;14.02;;;6.57;;
74213;SDS011;62576;55.694;37.494;2023-08-06T00:12:51;12.07;;;6.00;;
74213;SDS011;62576;55.694;37.494;2023-08-06T00:15:22;16.17;;;6.97;;
74213;SDS011;62576;55.694;37.494;2023-08-06T00:17:49;10.48;;;5.95;;
74213;SDS011;62576;55.694;37.494;2023-08-06T00:20:18;11.45;;;6.13;;
74213;SDS011;62576;55.694;37.494;2023-08-06T00:22:48;11.65;;;5.97;;
74213;SDS011;62576;55.694;37.494;2023-08-06T00:25:18;14.07;;;6.00;;
74213;SDS011;62576;55.694;37.494;2023-08-06T00:27:47;11.68;;;5.80;;
74213;SDS011;62576;55.694;37.494;2023-08-06T00:30:17;11.27;;;5.90;;
74213;SDS011;62576;55.694;37.494;2023-08-06T00:32:48;10.45;;;6.07;;
74213;SDS011;62576;55.694;37.494;2023-08-06T00:35:18;11.50;;;5.93;;
74213;SDS011;62576;55.694;37.494;2023-08-06T00:37:48;14.20;;;5.97;;
74213;SDS011;62576;55.694;37.494;2023-08-06T00:40:19;8.27;;;5.82;;
74213;SDS011;62576;55.694;37.494;2023-08-06T00:42:50;10.15;;;5.47;;
74213;SDS011;62576;55.694;37.494;2023-08-06T00:45:19;12.00;;;5.70;;
74213;SDS011;62576;55.694;37.494;2023-08-06T00:47:50;7.43;;;5.38;;
74213;SDS011;62576;55.694;37.494;2023-08-06T00:50:20;13.27;;;6.13;;
74213;SDS011;62576;55.694;37.494;2023-08-06T00:52:51;11.38;;;5.95;;
74213;SDS011;62576;55.694;37.494;2023-08-06T00:55:20;13.65;;;5.82;;
74213;SDS011;62576;55.694;37.494;2023-08-06T00:57:50;11.88;;;6.20;;
74213;SDS011;62576;55.694;37.494;2023-08-06T01:00:21;10.27;;;6.20;;
74213;SDS011;62576;55.694;37.494;2023-08-06T01:02:53;11.38;;;6.00;;
74213;SDS011;62576;55.694;37.494;2023-08-06T01:05:22;10.83;;;6.20;;
74213;SDS011;62576;55.694;37.494;2023-08-06T01:07:58;10.23;;;6.15;;
74213;SDS011;62576;55.694;37.494;2023-08-06T01:10:34;8.75;;;6.03;;
74213;SDS011;62576;55.694;37.494;2023-08-06T01:13:09;12.60;;;5.80;;
74213;SDS011;62576;55.694;37.494;2023-08-06T01:15:41;11.70;;;5.85;;
74213;SDS011;62576;55.694;37.494;2023-08-06T01:18:14;11.65;;;5.95;;
74213;SDS011;62576;55.694;37.494;2023-08-06T01:20:46;11.33;;;6.20;;
74213;SDS011;62576;55.694;37.494;2023-08-06T01:23:15;13.63;;;5.90;;
74213;SDS011;62576;55.694;37.494;2023-08-06T01:25:47;12.85;;;5.97;;
74213;SDS011;62576;55.694;37.494;2023-08-06T01:28:18;11.93;;;6.15;;
74213;SDS011;62576;55.694;37.494;2023-08-06T01:30:51;10.05;;;5.68;;
74213;SDS011;62576;55.694;37.494;2023-08-06T01:33:22;12.33;;;6.33;;
74213;SDS011;62576;55.694;37.494;2023-08-06T01:35:54;14.55;;;6.18;;
74213;SDS011;62576;55.694;37.494;2023-08-06T01:38:24;11.05;;;6.00;;
74213;SDS011;62576;55.694;37.494;2023-08-06T01:40:56;8.52;;;6.05;;
74213;SDS011;62576;55.694;37.494;2023-08-06T01:43:25;12.65;;;6.20;;
74213;SDS011;62576;55.694;37.494;2023-08-06T01:45:57;11.43;;;6.00;;
74213;SDS011;62576;55.694;37.494;2023-08-06T01:48:27;9.55;;;6.00;;
74213;SDS011;62576;55.694;37.494;2023-08-06T01:50:58;11.77;;;6.00;;
74213;SDS011;62576;55.694;37.494;2023-08-06T01:53:30;9.50;;;6.05;;
74213;SDS011;62576;55.694;37.494;2023-08-06T01:55:59;13.85;;;6.20;;
74213;SDS011;62576;55.694;37.494;2023-08-06T01:58:29;15.38;;;6.50;;
74213;SDS011;62576;55.694;37.494;2023-08-06T02:00:59;10.30;;;5.97;;
74213;SDS011;62576;55.694;37.494;2023-08-06T02:03:28;11.32;;;6.45;;
74213;SDS011;62576;55.694;37.494;2023-08-06T02:05:59;11.57;;;5.63;;
74213;SDS011;62576;55.694;37.494;2023-08-06T02:08:29;15.48;;;6.60;;
74213;SDS011;62576;55.694;37.494;2023-08-06T02:10:59;13.02;;;6.53;;
74213;SDS011;62576;55.694;37.494;2023-08-06T02:13:29;11.35;;;6.18;;
74213;SDS011;62576;55.694;37.494;2023-08-06T02:15:55;10.45;;;6.75;;
74213;SDS011;62576;55.694;37.494;2023-08-06T02:18:25;15.00;;;6.53;;
74213;SDS011;62576;55.694;37.494;2023-08-06T02:20:55;11.65;;;6.68;;
74213;SDS011;62576;55.694;37.494;2023-08-06T02:23:27;16.45;;;7.15;;
74213;SDS011;62576;55.694;37.494;2023-08-06T02:25:57;13.95;;;6.55;;
74213;SDS011;62576;55.694;37.494;2023-08-06T02:28:27;11.75;;;6.60;;
74213;SDS011;62576;55.694;37.494;2023-08-06T02:30:57;13.32;;;6.78;;
74213;SDS011;62576;55.694;37.494;2023-08-06T02:33:26;11.73;;;7.32;;
74213;SDS011;62576;55.694;37.494;2023-08-06T02:35:59;11.90;;;7.00;;
74213;SDS011;62576;55.694;37.494;2023-08-06T02:38:33;13.43;;;6.97;;
74213;SDS011;62576;55.694;37.494;2023-08-06T02:41:02;12.88;;;6.90;;
74213;SDS011;62576;55.694;37.494;2023-08-06T02:43:32;12.00;;;6.90;;
74213;SDS011;62576;55.694;37.494;2023-08-06T02:46:02;12.05;;;6.75;;
74213;SDS011;62576;55.694;37.494;2023-08-06T02:48:31;10.82;;;6.93;;
74213;SDS011;62576;55.694;37.494;2023-08-06T02:51:02;14.98;;;7.90;;
74213;SDS011;62576;55.694;37.494;2023-08-06T02:53:33;13.57;;;7.03;;
74213;SDS011;62576;55.694;37.494;2023-08-06T02:56:04;13.35;;;7.38;;
74213;SDS011;62576;55.694;37.494;2023-08-06T02:58:34;18.45;;;7.50;;
74213;SDS011;62576;55.694;37.494;2023-08-06T03:01:04;17.45;;;8.07;;
74213;SDS011;62576;55.694;37.494;2023-08-06T03:03:35;15.88;;;7.38;;
74213;SDS011;62576;55.694;37.494;2023-08-06T03:06:04;14.65;;;7.70;;
74213;SDS011;62576;55.694;37.494;2023-08-06T03:08:38;16.67;;;7.55;;
74213;SDS011;62576;55.694;37.494;2023-08-06T03:11:07;17.33;;;7.55;;
74213;SDS011;62576;55.694;37.494;2023-08-06T03:13:37;15.63;;;7.18;;
74213;SDS011;62576;55.694;37.494;2023-08-06T03:16:04;13.90;;;7.50;;
74213;SDS011;62576;55.694;37.494;2023-08-06T03:18:33;16.23;;;7.82;;
74213;SDS011;62576;55.694;37.494;2023-08-06T03:21:03;16.67;;;8.05;;
74213;SDS011;62576;55.694;37.494;2023-08-06T03:23:32;14.32;;;7.10;;
74213;SDS011;62576;55.694;37.494;2023-08-06T03:26:04;12.10;;;7.45;;
74213;SDS011;62576;55.694;37.494;2023-08-06T03:28:33;15.35;;;7.25;;
74213;SDS011;62576;55.694;37.494;2023-08-06T03:31:03;15.30;;;7.32;;
74213;SDS011;62576;55.694;37.494;2023-08-06T03:33:33;15.60;;;6.97;;
74213;SDS011;62576;55.694;37.494;2023-08-06T03:36:02;13.30;;;7.30;;
74213;SDS011;62576;55.694;37.494;2023-08-06T03:38:32;14.35;;;7.07;;
74213;SDS011;62576;55.694;37.494;2023-08-06T03:41:02;13.77;;;6.63;;
74213;SDS011;62576;55.694;37.494;2023-08-06T03:43:33;13.50;;;7.07;;
74213;SDS011;62576;55.694;37.494;2023-08-06T03:46:02;15.57;;;6.80;;
74213;SDS011;62576;55.694;37.494;2023-08-06T03:48:32;11.73;;;6.65;;
74213;SDS011;62576;55.694;37.494;2023-08-06T03:51:01;14.88;;;6.80;;
74213;SDS011;62576;55.694;37.494;2023-08-06T03:53:31;13.93;;;6.63;;
74213;SDS011;62576;55.694;37.494;2023-08-06T03:56:01;15.82;;;6.50;;
74213;SDS011;62576;55.694;37.494;2023-08-06T03:58:30;13.30;;;6.50;;
74213;SDS011;62576;55.694;37.494;2023-08-06T04:01:02;14.43;;;6.18;;
74213;SDS011;62576;55.694;37.494;2023-08-06T04:03:32;17.75;;;6.35;;
74213;SDS011;62576;55.694;37.494;2023-08-06T04:06:02;11.77;;;6.35;;
74213;SDS011;62576;55.694;37.494;2023-08-06T04:08:31;13.60;;;6.20;;
74213;SDS011;62576;55.694;37.494;2023-08-06T04:11:01;10.32;;;5.93;;
74213;SDS011;62576;55.694;37.494;2023-08-06T04:13:31;12.75;;;6.15;;
74213;SDS011;62576;55.694;37.494;2023-08-06T04:16:02;16.88;;;6.20;;
74213;SDS011;62576;55.694;37.494;2023-08-06T04:18:31;17.70;;;5.95;;
74213;SDS011;62576;55.694;37.494;2023-08-06T04:21:01;11.32;;;5.72;;
74213;SDS011;62576;55.694;37.494;2023-08-06T04:23:30;15.18;;;5.90;;
74213;SDS011;62576;55.694;37.494;2023-08-06T04:26:00;13.82;;;6.45;;
74213;SDS011;62576;55.694;37.494;2023-08-06T04:28:30;15.38;;;6.03;;
74213;SDS011;62576;55.694;37.494;2023-08-06T04:30:59;12.73;;;6.10;;
74213;SDS011;62576;55.694;37.494;2023-08-06T04:33:31;13.55;;;6.25;;
74213;SDS011;62576;55.694;37.494;2023-08-06T04:36:00;12.48;;;6.40;;
74213;SDS011;62576;55.694;37.494;2023-08-06T04:38:30;14.85;;;6.18;;
74213;SDS011;62576;55.694;37.494;2023-08-06T04:41:01;10.40;;;5.70;;
74213;SDS011;62576;55.694;37.494;2023-08-06T04:43:31;10.65;;;5.82;;
74213;SDS011;62576;55.694;37.494;2023-08-06T04:46:01;12.23;;;6.18;;
74213;SDS011;62576;55.694;37.494;2023-08-06T04:48:32;14.68;;;6.15;;
74213;SDS011;62576;55.694;37.494;2023-08-06T04:51:01;13.35;;;5.80;;
74213;SDS011;62576;55.694;37.494;2023-08-06T04:53:31;14.77;;;6.00;;
74213;SDS011;62576;55.694;37.494;2023-08-06T04:56:01;9.77;;;5.88;;
74213;SDS011;62576;55.694;37.494;2023-08-06T04:58:30;13.82;;;6.05;;
74213;SDS011;62576;55.694;37.494;2023-08-06T05:01:00;13.35;;;6.00;;
74213;SDS011;62576;55.694;37.494;2023-08-06T05:03:30;9.50;;;5.60;;
74213;SDS011;62576;55.694;37.494;2023-08-06T05:06:00;10.30;;;5.82;;
74213;SDS011;62576;55.694;37.494;2023-08-06T05:08:30;10.50;;;6.07;;
74213;SDS011;62576;55.694;37.494;2023-08-06T05:10:59;14.55;;;5.45;;
74213;SDS011;62576;55.694;37.494;2023-08-06T05:13:29;12.23;;;5.80;;
74213;SDS011;62576;55.694;37.494;2023-08-06T05:15:56;9.38;;;5.55;;
74213;SDS011;62576;55.694;37.494;2023-08-06T05:18:26;10.13;;;5.53;;
74213;SDS011;62576;55.694;37.494;2023-08-06T05:20:55;10.80;;;5.45;;
74213;SDS011;62576;55.694;37.494;2023-08-06T05:23:26;10.68;;;5.80;;
74213;SDS011;62576;55.694;37.494;2023-08-06T05:25:56;10.93;;;5.68;;
74213;SDS011;62576;55.694;37.494;2023-08-06T05:28:26;10.35;;;6.05;;
74213;SDS011;62576;55.694;37.494;2023-08-06T05:30:55;15.98;;;6.20;;
74213;SDS011;62576;55.694;37.494;2023-08-06T05:33:25;9.38;;;5.95;;
74213;SDS011;62576;55.694;37.494;2023-08-06T05:35:55;9.20;;;5.75;;
74213;SDS011;62576;55.694;37.494;2023-08-06T05:38:24;11.25;;;5.40;;
74213;SDS011;62576;55.694;37.494;2023-08-06T05:40:56;10.85;;;5.40;;
74213;SDS011;62576;55.694;37.494;2023-08-06T05:43:25;10.87;;;5.30;;
74213;SDS011;62576;55.694;37.494;2023-08-06T05:45:55;11.77;;;5.60;;
74213;SDS011;62576;55.694;37.494;2023-08-06T05:48:25;14.85;;;5.82;;
74213;SDS011;62576;55.694;37.494;2023-08-06T05:50:56;12.30;;;5.30;;
74213;SDS011;62576;55.694;37.494;2023-08-06T05:53:26;10.82;;;5.60;;
74213;SDS011;62576;55.694;37.494;2023-08-06T05:55:57;9.98;;;5.20;;
74213;SDS011;62576;55.694;37.494;2023-08-06T05:58:27;11.00;;;5.07;;
74213;SDS011;62576;55.694;37.494;2023-08-06T06:00:58;11.30;;;5.57;;
74213;SDS011;62576;55.694;37.494;2023-08-06T06:03:27;9.32;;;5.40;;
74213;SDS011;62576;55.694;37.494;2023-08-06T06:05:57;8.38;;;4.90;;
74213;SDS011;62576;55.694;37.494;2023-08-06T06:08:27;9.00;;;4.88;;
74213;SDS011;62576;55.694;37.494;2023-08-06T06:10:58;11.27;;;5.20;;
74213;SDS011;62576;55.694;37.494;2023-08-06T06:13:28;8.93;;;5.07;;
74213;SDS011;62576;55.694;37.494;2023-08-06T06:15:55;10.15;;;5.15;;
74213;SDS011;62576;55.694;37.494;2023-08-06T06:18:24;9.38;;;5.10;;
74213;SDS011;62576;55.694;37.494;2023-08-06T06:20:54;13.10;;;4.90;;
74213;SDS011;62576;55.694;37.494;2023-08-06T06:23:23;14.18;;;5.22;;
74213;SDS011;62576;55.694;37.494;2023-08-06T06:25:53;8.32;;;5.15;;
74213;SDS011;62576;55.694;37.494;2023-08-06T06:28:25;9.90;;;5.30;;
74213;SDS011;62576;55.694;37.494;2023-08-06T06:30:59;10.53;;;5.47;;
74213;SDS011;62576;55.694;37.494;2023-08-06T06:33:29;15.95;;;5.65;;
74213;SDS011;62576;55.694;37.494;2023-08-06T06:35:59;13.93;;;5.43;;
74213;SDS011;62576;55.694;37.494;2023-08-06T06:38:28;12.02;;;5.50;;
74213;SDS011;62576;55.694;37.494;2023-08-06T06:40:58;12.18;;;5.72;;
74213;SDS011;62576;55.694;37.494;2023-08-06T06:43:29;11.07;;;5.78;;
74213;SDS011;62576;55.694;37.494;2023-08-06T06:45:59;9.93;;;5.33;;
74213;SDS011;62576;55.694;37.494;2023-08-06T06:48:29;13.65;;;5.28;;
74213;SDS011;62576;55.694;37.494;2023-08-06T06:50:59;10.55;;;5.38;;
74213;SDS011;62576;55.694;37.494;2023-08-06T06:53:29;12.65;;;5.90;;
74213;SDS011;62576;55.694;37.494;2023-08-06T06:56:01;12.02;;;5.45;;
74213;SDS011;62576;55.694;37.494;2023-08-06T06:58:32;14.60;;;5.80;;
74213;SDS011;62576;55.694;37.494;2023-08-06T07:01:02;11.15;;;5.70;;
74213;SDS011;62576;55.694;37.494;2023-08-06T07:03:32;10.57;;;6.22;;
74213;SDS011;62576;55.694;37.494;2023-08-06T07:06:01;16.40;;;6.35;;
74213;SDS011;62576;55.694;37.494;2023-08-06T07:08:31;13.50;;;5.55;;
74213;SDS011;62576;55.694;37.494;2023-08-06T07:11:01;13.85;;;5.50;;
74213;SDS011;62576;55.694;37.494;2023-08-06T07:13:33;12.68;;;5.40;;
74213;SDS011;62576;55.694;37.494;2023-08-06T07:16:00;10.45;;;5.57;;
74213;SDS011;62576;55.694;37.494;2023-08-06T07:18:30;16.60;;;5.70;;
74213;SDS011;62576;55.694;37.494;2023-08-06T07:21:00;15.40;;;5.80;;
74213;SDS011;62576;55.694;37.494;2023-08-06T07:23:29;10.18;;;5.15;;
74213;SDS011;62576;55.694;37.494;2023-08-06T07:25:59;10.70;;;5.50;;
74213;SDS011;62576;55.694;37.494;2023-08-06T07:28:33;11.63;;;5.22;;
74213;SDS011;62576;55.694;37.494;2023-08-06T07:31:03;14.63;;;5.78;;
74213;SDS011;62576;55.694;37.494;2023-08-06T07:33:32;15.18;;;5.47;;
74213;SDS011;62576;55.694;37.494;2023-08-06T07:36:07;10.98;;;5.57;;
74213;SDS011;62576;55.694;37.494;2023-08-06T07:38:37;10.38;;;5.53;;
74213;SDS011;62576;55.694;37.494;2023-08-06T07:41:07;11.45;;;5.78;;
74213;SDS011;62576;55.694;37.494;2023-08-06T07:43:38;15.50;;;5.95;;
74213;SDS011;62576;55.694;37.494;2023-08-06T07:46:08;11.35;;;5.70;;
74213;SDS011;62576;55.694;37.494;2023-08-06T07:48:37;10.55;;;5.57;;
74213;SDS011;62576;55.694;37.494;2023-08-06T07:51:07;15.50;;;6.03;;
74213;SDS011;62576;55.694;37.494;2023-08-06T07:53:37;8.98;;;5.50;;
74213;SDS011;62576;55.694;37.494;2023-08-06T07:56:06;9.75;;;5.45;;
74213;SDS011;62576;55.694;37.494;2023-08-06T07:58:37;10.55;;;5.70;;
74213;SDS011;62576;55.694;37.494;2023-08-06T08:01:07;9.47;;;5.73;;
74213;SDS011;62576;55.694;37.494;2023-08-06T08:03:37;10.32;;;5.90;;
74213;SDS011;62576;55.694;37.494;2023-08-06T08:06:06;11.10;;;5.70;;
74213;SDS011;62576;55.694;37.494;2023-08-06T08:08:36;12.00;;;5.97;;
74213;SDS011;62576;55.694;37.494;2023-08-06T08:11:06;11.07;;;5.70;;
74213;SDS011;62576;55.694;37.494;2023-08-06T08:13:38;14.10;;;5.97;;
74213;SDS011;62576;55.694;37.494;2023-08-06T08:16:04;10.10;;;5.63;;
74213;SDS011;62576;55.694;37.494;2023-08-06T08:18:35;12.15;;;5.95;;
74213;SDS011;62576;55.694;37.494;2023-08-06T08:21:04;15.82;;;6.07;;
74213;SDS011;62576;55.694;37.494;2023-08-06T08:23:34;9.70;;;5.90;;
74213;SDS011;62576;55.694;37.494;2023-08-06T08:26:04;10.18;;;6.43;;
74213;SDS011;62576;55.694;37.494;2023-08-06T08:28:33;11.32;;;5.90;;
74213;SDS011;62576;55.694;37.494;2023-08-06T08:31:04;11.40;;;5.97;;
74213;SDS011;62576;55.694;37.494;2023-08-06T08:33:37;15.48;;;6.03;;
74213;SDS011;62576;55.694;37.494;2023-08-06T08:36:06;11.70;;;6.00;;
74213;SDS011;62576;55.694;37.494;2023-08-06T08:38:38;12.48;;;6.05;;
74213;SDS011;62576;55.694;37.494;2023-08-06T08:41:09;13.45;;;6.68;;
74213;SDS011;62576;55.694;37.494;2023-08-06T08:43:38;10.00;;;6.10;;
74213;SDS011;62576;55.694;37.494;2023-08-06T08:46:11;9.43;;;5.82;;
74213;SDS011;62576;55.694;37.494;2023-08-06T08:48:45;13.85;;;5.78;;
74213;SDS011;62576;55.694;37.494;2023-08-06T08:51:15;10.82;;;5.72;;
74213;SDS011;62576;55.694;37.494;2023-08-06T08:53:46;10.88;;;6.22;;
74213;SDS011;62576;55.694;37.494;2023-08-06T08:56:19;11.55;;;5.80;;
74213;SDS011;62576;55.694;37.494;2023-08-06T08:58:49;8.27;;;5.80;;
74213;SDS011;62576;55.694;37.494;2023-08-06T09:01:21;8.48;;;5.47;;
74213;SDS011;62576;55.694;37.494;2023-08-06T09:03:51;11.80;;;5.95;;
74213;SDS011;62576;55.694;37.494;2023-08-06T09:06:21;11.02;;;6.57;;
74213;SDS011;62576;55.694;37.494;2023-08-06T09:08:54;9.73;;;5.82;;
74213;SDS011;62576;55.694;37.494;2023-08-06T09:11:25;12.02;;;6.15;;
74213;SDS011;62576;55.694;37.494;2023-08-06T09:13:56;12.85;;;5.70;;
74213;SDS011;62576;55.694;37.494;2023-08-06T09:16:24;12.38;;;6.07;;
74213;SDS011;62576;55.694;37.494;2023-08-06T09:18:54;12.57;;;6.00;;
74213;SDS011;62576;55.694;37.494;2023-08-06T09:21:24;10.88;;;6.05;;
74213;SDS011;62576;55.694;37.494;2023-08-06T09:23:54;9.43;;;5.45;;
74213;SDS011;62576;55.694;37.494;2023-08-06T09:26:24;10.85;;;5.72;;
74213;SDS011;62576;55.694;37.494;2023-08-06T09:31:30;13.13;;;5.55;;
74213;SDS011;62576;55.694;37.494;2023-08-06T09:34:01;10.43;;;6.15;;
74213;SDS011;62576;55.694;37.494;2023-08-06T09:36:31;10.73;;;6.05;;
74213;SDS011;62576;55.694;37.494;2023-08-06T09:39:01;7.93;;;5.70;;
74213;SDS011;62576;55.694;37.494;2023-08-06T09:41:41;14.35;;;6.07;;
74213;SDS011;62576;55.694;37.494;2023-08-06T09:44:15;8.73;;;5.90;;
74213;SDS011;62576;55.694;37.494;2023-08-06T09:46:49;10.43;;;6.30;;
74213;SDS011;62576;55.694;37.494;2023-08-06T09:49:19;11.77;;;5.65;;
74213;SDS011;62576;55.694;37.494;2023-08-06T09:51:50;12.27;;;5.85;;
74213;SDS011;62576;55.694;37.494;2023-08-06T09:54:22;7.80;;;5.72;;
74213;SDS011;62576;55.694;37.494;2023-08-06T09:56:52;12.70;;;6.07;;
74213;SDS011;62576;55.694;37.494;2023-08-06T09:59:22;8.07;;;5.80;;
74213;SDS011;62576;55.694;37.494;2023-08-06T10:01:56;9.02;;;6.00;;
74213;SDS011;62576;55.694;37.494;2023-08-06T10:04:25;12.90;;;6.32;;
74213;SDS011;62576;55.694;37.494;2023-08-06T10:06:55;8.55;;;5.82;;
74213;SDS011;62576;55.694;37.494;2023-08-06T10:09:26;10.53;;;5.83;;
74213;SDS011;62576;55.694;37.494;2023-08-06T10:11:55;10.57;;;6.07;;
74213;SDS011;62576;55.694;37.494;2023-08-06T10:14:26;9.38;;;5.60;;
74213;SDS011;62576;55.694;37.494;2023-08-06T10:16:59;9.50;;;5.88;;
74213;SDS011;62576;55.694;37.494;2023-08-06T10:19:29;7.10;;;6.00;;
74213;SDS011;62576;55.694;37.494;2023-08-06T10:22:10;12.25;;;6.13;;
74213;SDS011;62576;55.694;37.494;2023-08-06T10:24:50;9.17;;;5.87;;
74213;SDS011;62576;55.694;37.494;2023-08-06T10:27:20;9.15;;;5.53;;
74213;SDS011;62576;55.694;37.494;2023-08-06T10:29:50;10.23;;;6.28;;
74213;SDS011;62576;55.694;37.494;2023-08-06T10:32:21;10.98;;;6.40;;
74213;SDS011;62576;55.694;37.494;2023-08-06T10:34:57;9.23;;;5.60;;
74213;SDS011;62576;55.694;37.494;2023-08-06T10:37:34;10.93;;;5.60;;
74213;SDS011;62576;55.694;37.494;2023-08-06T10:40:02;11.73;;;6.00;;
74213;SDS011;62576;55.694;37.494;2023-08-06T10:42:31;9.18;;;5.72;;
74213;SDS011;62576;55.694;37.494;2023-08-06T10:45:11;9.75;;;5.45;;
74213;SDS011;62576;55.694;37.494;2023-08-06T10:47:42;10.38;;;5.75;;
74213;SDS011;62576;55.694;37.494;2023-08-06T10:50:12;10.65;;;5.60;;
74213;SDS011;62576;55.694;37.494;2023-08-06T10:52:45;9.98;;;6.00;;
74213;SDS011;62576;55.694;37.494;2023-08-06T10:55:14;10.35;;;5.93;;
74213;SDS011;62576;55.694;37.494;2023-08-06T10:57:51;11.80;;;5.78;;
74213;SDS011;62576;55.694;37.494;2023-08-06T11:00:21;10.30;;;5.95;;
74213;SDS011;62576;55.694;37.494;2023-08-06T11:02:53;7.68;;;5.97;;
74213;SDS011;62576;55.694;37.494;2023-08-06T11:05:23;13.32;;;6.65;;
74213;SDS011;62576;55.694;37.494;2023-08-06T11:07:53;9.60;;;6.13;;
74213;SDS011;62576;55.694;37.494;2023-08-06T11:10:23;12.93;;;5.80;;
74213;SDS011;62576;55.694;37.494;2023-08-06T11:12:52;13.07;;;6.90;;
74213;SDS011;62576;55.694;37.494;2023-08-06T11:15:22;11.65;;;6.00;;
74213;SDS011;62576;55.694;37.494;2023-08-06T11:17:53;11.90;;;6.57;;
74213;SDS011;62576;55.694;37.494;2023-08-06T11:20:23;7.78;;;5.63;;
74213;SDS011;62576;55.694;37.494;2023-08-06T11:22:53;7.47;;;5.73;;
74213;SDS011;62576;55.694;37.494;2023-08-06T11:25:23;7.97;;;5.78;;
74213;SDS011;62576;55.694;37.494;2023-08-06T11:27:53;10.80;;;6.20;;
74213;SDS011;62576;55.694;37.494;2023-08-06T11:30:22;9.43;;;5.60;;
74213;SDS011;62576;55.694;37.494;2023-08-06T11:32:53;7.83;;;6.30;;
74213;SDS011;62576;55.694;37.494;2023-08-06T11:35:23;10.52;;;6.40;;
74213;SDS011;62576;55.694;37.494;2023-08-06T11:37:52;9.13;;;5.90;;
74213;SDS011;62576;55.694;37.494;2023-08-06T11:40:22;7.30;;;5.88;;
74213;SDS011;62576;55.694;37.494;2023-08-06T11:42:52;9.25;;;5.25;;
74213;SDS011;62576;55.694;37.494;2023-08-06T11:45:22;7.88;;;5.20;;
74213;SDS011;62576;55.694;37.494;2023-08-06T11:47:53;8.45;;;5.60;;
74213;SDS011;62576;55.694;37.494;2023-08-06T11:50:23;10.93;;;5.82;;
74213;SDS011;62576;55.694;37.494;2023-08-06T11:52:54;7.07;;;5.70;;
74213;SDS011;62576;55.694;37.494;2023-08-06T11:55:24;9.23;;;5.75;;
74213;SDS011;62576;55.694;37.494;2023-08-06T11:57:54;9.05;;;5.70;;
74213;SDS011;62576;55.694;37.494;2023-08-06T12:00:24;9.53;;;5.37;;
74213;SDS011;62576;55.694;37.494;2023-08-06T12:05:28;9.55;;;5.65;;
74213;SDS011;62576;55.694;37.494;2023-08-06T12:07:59;9.43;;;5.90;;
74213;SDS011;62576;55.694;37.494;2023-08-06T12:10:29;7.95;;;5.30;;
74213;SDS011;62576;55.694;37.494;2023-08-06T12:12:59;9.68;;;5.90;;
74213;SDS011;62576;55.694;37.494;2023-08-06T12:15:29;11.25;;;6.10;;
74213;SDS011;62576;55.694;37.494;2023-08-06T12:17:59;10.32;;;5.90;;
74213;SDS011;62576;55.694;37.494;2023-08-06T12:20:30;8.63;;;5.80;;
74213;SDS011;62576;55.694;37.494;2023-08-06T12:22:59;9.07;;;5.75;;
74213;SDS011;62576;55.694;37.494;2023-08-06T12:25:29;7.47;;;5.17;;
74213;SDS011;62576;55.694;37.494;2023-08-06T12:27:59;8.20;;;5.70;;
74213;SDS011;62576;55.694;37.494;2023-08-06T12:30:28;8.35;;;5.32;;
74213;SDS011;62576;55.694;37.494;2023-08-06T12:32:58;9.63;;;5.68;;
74213;SDS011;62576;55.694;37.494;2023-08-06T12:35:28;7.72;;;5.20;;
74213;SDS011;62576;55.694;37.494;2023-08-06T12:37:59;9.32;;;5.07;;
74213;SDS011;62576;55.694;37.494;2023-08-06T12:40:29;9.13;;;5.25;;
74213;SDS011;62576;55.694;37.494;2023-08-06T12:42:58;12.90;;;5.05;;
74213;SDS011;62576;55.694;37.494;2023-08-06T12:45:29;7.22;;;5.32;;
74213;SDS011;62576;55.694;37.494;2023-08-06T12:47:58;7.43;;;5.60;;
74213;SDS011;62576;55.694;37.494;2023-08-06T12:50:28;10.07;;;5.35;;
74213;SDS011;62576;55.694;37.494;2023-08-06T12:53:02;9.27;;;5.95;;
74213;SDS011;62576;55.694;37.494;2023-08-06T12:55:33;8.02;;;5.13;;
74213;SDS011;62576;55.694;37.494;2023-08-06T12:58:03;10.13;;;5.17;;
74213;SDS011;62576;55.694;37.494;2023-08-06T13:00:32;8.25;;;5.55;;
74213;SDS011;62576;55.694;37.494;2023-08-06T13:03:02;8.70;;;5.57;;
74213;SDS011;62576;55.694;37.494;2023-08-06T13:05:32;6.35;;;5.20;;
74213;SDS011;62576;55.694;37.494;2023-08-06T13:08:03;7.10;;;5.40;;
74213;SDS011;62576;55.694;37.494;2023-08-06T13:10:32;8.40;;;5.60;;
74213;SDS011;62576;55.694;37.494;2023-08-06T13:13:02;9.05;;;5.40;;
74213;SDS011;62576;55.694;37.494;2023-08-06T13:15:33;8.27;;;5.18;;
74213;SDS011;62576;55.694;37.494;2023-08-06T13:18:03;8.27;;;5.47;;
74213;SDS011;62576;55.694;37.494;2023-08-06T13:20:32;11.77;;;5.78;;
74213;SDS011;62576;55.694;37.494;2023-08-06T13:23:03;7.28;;;5.32;;
74213;SDS011;62576;55.694;37.494;2023-08-06T13:25:33;8.23;;;5.18;;
74213;SDS011;62576;55.694;37.494;2023-08-06T13:28:05;10.50;;;5.55;;
74213;SDS011;62576;55.694;37.494;2023-08-06T13:30:35;9.70;;;5.38;;
74213;SDS011;62576;55.694;37.494;2023-08-06T13:33:09;9.40;;;5.40;;
74213;SDS011;62576;55.694;37.494;2023-08-06T13:35:39;8.48;;;5.45;;
74213;SDS011;62576;55.694;37.494;2023-08-06T13:38:10;8.57;;;5.20;;
74213;SDS011;62576;55.694;37.494;2023-08-06T13:40:40;8.80;;;5.70;;
74213;SDS011;62576;55.694;37.494;2023-08-06T13:43:12;6.85;;;5.22;;
74213;SDS011;62576;55.694;37.494;2023-08-06T13:45:43;10.75;;;5.57;;
74213;SDS011;62576;55.694;37.494;2023-08-06T13:48:13;8.52;;;5.70;;
74213;SDS011;62576;55.694;37.494;2023-08-06T13:50:42;11.32;;;5.28;;
74213;SDS011;62576;55.694;37.494;2023-08-06T13:53:14;8.15;;;5.55;;
74213;SDS011;62576;55.694;37.494;2023-08-06T13:55:44;8.45;;;5.80;;
74213;SDS011;62576;55.694;37.494;2023-08-06T13:58:13;7.82;;;5.70;;
74213;SDS011;62576;55.694;37.494;2023-08-06T14:00:43;8.75;;;5.35;;
74213;SDS011;62576;55.694;37.494;2023-08-06T14:03:13;9.50;;;5.20;;
74213;SDS011;62576;55.694;37.494;2023-08-06T14:05:42;9.53;;;5.10;;
74213;SDS011;62576;55.694;37.494;2023-08-06T14:08:12;7.67;;;5.00;;
74213;SDS011;62576;55.694;37.494;2023-08-06T14:10:43;11.75;;;5.47;;
74213;SDS011;62576;55.694;37.494;2023-08-06T14:13:13;11.35;;;5.80;;
74213;SDS011;62576;55.694;37.494;2023-08-06T14:15:42;9.20;;;5.43;;
74213;SDS011;62576;55.694;37.494;2023-08-06T14:18:14;9.70;;;5.93;;
74213;SDS011;62576;55.694;37.494;2023-08-06T14:20:44;8.15;;;6.57;;
74213;SDS011;62576;55.694;37.494;2023-08-06T14:23:14;11.00;;;6.22;;
74213;SDS011;62576;55.694;37.494;2023-08-06T14:25:45;10.65;;;6.00;;
74213;SDS011;62576;55.694;37.494;2023-08-06T14:28:14;11.90;;;6.18;;
74213;SDS011;62576;55.694;37.494;2023-08-06T14:30:44;9.23;;;5.82;;
74213;SDS011;62576;55.694;37.494;2023-08-06T14:33:14;12.73;;;8.57;;
74213;SDS011;62576;55.694;37.494;2023-08-06T14:35:43;9.98;;;6.10;;
74213;SDS011;62576;55.694;37.494;2023-08-06T14:38:13;12.10;;;6.63;;
74213;SDS011;62576;55.694;37.494;2023-08-06T14:40:44;9.30;;;6.50;;
74213;SDS011;62576;55.694;37.494;2023-08-06T14:43:14;13.73;;;6.70;;
74213;SDS011;62576;55.694;37.494;2023-08-06T14:45:47;10.98;;;6.85;;
74213;SDS011;62576;55.694;37.494;2023-08-06T14:48:17;13.73;;;7.60;;